createdAt,value
2019-02-16T00:00:35.888Z,3.67
2019-02-16T00:03:43.835Z,3.73
2019-02-16T00:06:52.161Z,3.40
2019-02-16T00:10:00.247Z,3.90
2019-02-16T00:13:08.991Z,3.47
2019-02-16T00:16:17.259Z,3.17
2019-02-16T00:19:25.073Z,3.33
2019-02-16T00:22:33.256Z,3.17
2019-02-16T00:25:41.010Z,2.70
2019-02-16T00:28:48.747Z,3.67
2019-02-16T00:31:56.270Z,3.80
2019-02-16T00:35:03.939Z,3.13
2019-02-16T00:38:12.079Z,3.53
2019-02-16T00:41:19.404Z,2.77
2019-02-16T00:44:27.304Z,2.77
2019-02-16T00:47:35.088Z,3.00
2019-02-16T00:50:42.827Z,2.97
2019-02-16T00:53:51.315Z,3.67
2019-02-16T00:56:59.339Z,3.80
2019-02-16T01:00:08.689Z,3.90
2019-02-16T01:03:16.644Z,3.17
2019-02-16T01:06:24.773Z,3.63
2019-02-16T01:09:32.294Z,3.83
2019-02-16T01:12:40.164Z,3.37
2019-02-16T01:15:48.380Z,3.67
2019-02-16T01:18:56.134Z,3.23
2019-02-16T01:22:03.884Z,3.37
2019-02-16T01:25:12.810Z,3.27
2019-02-16T01:28:20.494Z,3.90
2019-02-16T01:31:28.378Z,3.47
2019-02-16T01:34:36.820Z,3.27
2019-02-16T01:37:45.056Z,2.93
2019-02-16T01:40:53.777Z,3.30
2019-02-16T01:44:02.702Z,2.90
2019-02-16T01:47:10.445Z,3.10
2019-02-16T01:50:18.604Z,3.90
2019-02-16T01:53:26.653Z,3.83
2019-02-16T01:56:34.319Z,3.03
2019-02-16T01:59:42.070Z,2.80
2019-02-16T02:02:49.941Z,3.60
2019-02-16T02:05:58.279Z,3.40
2019-02-16T02:09:06.470Z,2.60
2019-02-16T02:12:14.588Z,3.27
2019-02-16T02:15:22.403Z,3.30
2019-02-16T02:18:30.256Z,3.23
2019-02-16T02:21:41.257Z,2.73
2019-02-16T02:24:51.061Z,3.13
2019-02-16T02:27:58.220Z,3.73
2019-02-16T02:31:06.312Z,2.90
2019-02-16T02:34:13.873Z,3.50
2019-02-16T02:37:22.223Z,3.17
2019-02-16T02:40:30.459Z,3.53
2019-02-16T02:43:37.845Z,3.57
2019-02-16T02:46:45.019Z,3.63
2019-02-16T02:49:52.611Z,3.17
2019-02-16T02:52:59.790Z,2.57
2019-02-16T02:56:07.094Z,3.10
2019-02-16T02:59:14.593Z,3.27
2019-02-16T03:02:22.088Z,3.10
2019-02-16T03:05:29.241Z,2.93
2019-02-16T03:08:36.402Z,2.93
2019-02-16T03:11:43.797Z,2.93
2019-02-16T03:14:50.945Z,3.27
2019-02-16T03:17:58.105Z,2.70
2019-02-16T03:21:05.263Z,3.53
2019-02-16T03:24:12.412Z,2.97
2019-02-16T03:28:13.608Z,3.00
2019-02-16T03:32:30.168Z,3.20
2019-02-16T03:36:32.259Z,2.57
2019-02-16T03:39:44.037Z,2.83
2019-02-16T03:42:51.214Z,2.80
2019-02-16T03:45:58.361Z,3.17
2019-02-16T03:49:05.559Z,3.30
2019-02-16T03:52:14.284Z,2.70
2019-02-16T03:55:21.933Z,2.77
2019-02-16T03:58:29.094Z,2.40
2019-02-16T04:01:36.284Z,3.03
2019-02-16T04:04:43.709Z,2.77
2019-02-16T04:07:50.866Z,2.33
2019-02-16T04:10:58.021Z,2.57
2019-02-16T04:14:05.182Z,2.53
2019-02-16T04:17:12.673Z,2.80
2019-02-16T04:20:20.331Z,2.87
2019-02-16T04:23:27.494Z,2.83
2019-02-16T04:26:34.885Z,2.37
2019-02-16T04:29:42.342Z,3.40
2019-02-16T04:32:49.500Z,2.63
2019-02-16T04:35:56.690Z,2.60
2019-02-16T04:39:05.125Z,3.13
2019-02-16T04:42:12.543Z,2.30
2019-02-16T04:45:20.224Z,2.43
2019-02-16T04:48:27.728Z,2.60
2019-02-16T04:51:35.002Z,2.23
2019-02-16T04:54:42.274Z,2.07
2019-02-16T04:57:49.656Z,2.50
2019-02-16T05:00:57.197Z,1.93
2019-02-16T05:04:04.902Z,2.50
2019-02-16T05:07:12.366Z,2.20
2019-02-16T05:10:19.720Z,2.17
2019-02-16T05:13:26.934Z,2.30
2019-02-16T05:16:34.082Z,2.33
2019-02-16T05:19:41.811Z,1.77
2019-02-16T05:22:49.055Z,2.10
2019-02-16T05:25:56.306Z,2.10
2019-02-16T05:29:03.460Z,1.57
2019-02-16T05:32:10.973Z,2.53
2019-02-16T05:35:18.189Z,2.27
2019-02-16T05:38:25.356Z,2.40
2019-02-16T05:41:32.745Z,2.00
2019-02-16T05:44:39.923Z,2.10
2019-02-16T05:47:47.489Z,1.70
2019-02-16T05:50:54.660Z,1.40
2019-02-16T05:54:01.937Z,1.73
2019-02-16T05:57:09.359Z,2.03
2019-02-16T06:00:18.809Z,1.40
2019-02-16T06:03:26.302Z,1.33
2019-02-16T06:06:33.466Z,1.77
2019-02-16T06:09:41.291Z,1.70
2019-02-16T06:12:48.576Z,1.50
2019-02-16T06:15:56.528Z,1.60
2019-02-16T06:19:03.812Z,2.07
2019-02-16T06:22:11.126Z,2.90
2019-02-16T06:25:18.586Z,4.20
2019-02-16T06:28:26.065Z,5.73
2019-02-16T06:31:33.346Z,5.37
2019-02-16T06:34:40.726Z,3.90
2019-02-16T06:37:48.458Z,3.50
2019-02-16T06:40:56.241Z,2.40
2019-02-16T06:44:04.277Z,2.13
2019-02-16T06:47:12.307Z,2.00
2019-02-16T06:50:19.901Z,1.50
2019-02-16T06:53:27.978Z,1.73
2019-02-16T06:56:44.997Z,1.67
2019-02-16T06:59:52.735Z,3.40
2019-02-16T07:03:00.303Z,5.10
2019-02-16T07:06:07.522Z,3.73
2019-02-16T07:09:15.105Z,2.60
2019-02-16T07:12:22.389Z,2.70
2019-02-16T07:15:30.184Z,5.47
2019-02-16T07:18:52.114Z,5.97
2019-02-16T07:21:59.546Z,6.07
2019-02-16T07:25:07.413Z,2.50
2019-02-16T07:28:14.928Z,2.17
2019-02-16T07:31:22.098Z,1.30
2019-02-16T07:34:29.950Z,1.50
2019-02-16T07:37:40.713Z,1.60
2019-02-16T07:40:49.586Z,2.10
2019-02-16T07:44:11.837Z,1.00
2019-02-16T07:47:46.814Z,1.17
2019-02-16T07:51:09.512Z,0.83
2019-02-16T07:54:28.833Z,0.77
2019-02-16T07:57:58.828Z,0.90
2019-02-16T08:01:37.980Z,0.87
2019-02-16T08:05:03.877Z,1.47
2019-02-16T08:08:36.403Z,1.63
2019-02-16T08:11:52.026Z,1.40
2019-02-16T08:15:07.917Z,3.27
2019-02-16T08:18:25.112Z,2.60
2019-02-16T08:21:50.623Z,1.00
2019-02-16T08:25:08.463Z,0.77
2019-02-16T08:28:30.228Z,0.70
2019-02-16T08:31:47.221Z,0.63
2019-02-16T08:35:02.704Z,0.97
2019-02-16T08:38:35.781Z,0.83
2019-02-16T08:42:02.603Z,0.80
2019-02-16T08:45:38.894Z,0.87
2019-02-16T08:49:05.714Z,1.57
2019-02-16T08:52:19.025Z,2.50
2019-02-16T08:55:38.512Z,2.43
2019-02-16T08:59:04.643Z,2.27
2019-02-16T09:02:20.962Z,1.70
2019-02-16T09:05:33.805Z,1.60
2019-02-16T09:09:00.620Z,1.03
2019-02-16T09:12:20.260Z,0.97
2019-02-16T09:15:50.106Z,1.50
2019-02-16T09:19:04.069Z,1.23
2019-02-16T09:22:24.150Z,0.90
2019-02-16T09:25:41.088Z,0.93
2019-02-16T09:29:06.815Z,1.03
2019-02-16T09:32:43.155Z,0.67
2019-02-16T09:36:22.407Z,1.30
2019-02-16T09:39:52.548Z,2.10
2019-02-16T09:43:10.289Z,1.17
2019-02-16T09:46:49.280Z,1.70
2019-02-16T09:50:07.778Z,2.23
2019-02-16T09:53:30.532Z,2.53
2019-02-16T09:57:04.210Z,2.70
2019-02-16T10:00:34.185Z,3.53
2019-02-16T10:03:52.495Z,10.43
2019-02-16T10:07:09.312Z,5.47
2019-02-16T10:10:35.033Z,6.63
2019-02-16T10:14:01.026Z,2.33
2019-02-16T10:17:27.796Z,2.80
2019-02-16T10:21:04.517Z,3.43
2019-02-16T10:24:30.407Z,2.37
2019-02-16T10:28:03.537Z,1.27
2019-02-16T10:31:24.615Z,0.97
2019-02-16T10:35:09.839Z,0.60
2019-02-16T10:38:39.795Z,0.80
2019-02-16T10:42:25.105Z,1.50
2019-02-16T10:45:44.685Z,0.63
2019-02-16T10:49:08.704Z,0.80
2019-02-16T10:52:34.878Z,0.60
2019-02-16T10:56:01.166Z,0.50
2019-02-16T10:59:23.218Z,0.60
2019-02-16T11:02:49.363Z,0.60
2019-02-16T11:06:16.691Z,1.20
2019-02-16T11:09:45.075Z,0.83
2019-02-16T11:13:18.377Z,0.63
2019-02-16T11:16:43.800Z,0.63
2019-02-16T11:20:20.632Z,0.40
2019-02-16T11:23:48.045Z,0.30
2019-02-16T11:27:13.777Z,0.40
2019-02-16T11:30:43.870Z,0.40
2019-02-16T11:34:10.008Z,0.30
2019-02-16T11:37:37.310Z,0.80
2019-02-16T11:41:03.515Z,0.30
2019-02-16T11:44:26.358Z,0.10
2019-02-16T11:47:43.703Z,0.20
2019-02-16T11:51:07.206Z,0.40
2019-02-16T11:54:30.604Z,0.30
2019-02-16T11:58:12.637Z,0.20
2019-02-16T12:01:33.264Z,0.40
2019-02-16T12:04:47.638Z,0.30
2019-02-16T12:08:20.894Z,0.30
2019-02-16T12:12:06.267Z,0.30
2019-02-16T12:15:45.277Z,0.20
2019-02-16T12:19:18.237Z,0.27
2019-02-16T12:22:43.839Z,0.30
2019-02-16T12:26:09.623Z,0.30
2019-02-16T12:29:36.706Z,0.33
2019-02-16T12:32:51.106Z,0.20
2019-02-16T12:36:22.018Z,0.30
2019-02-16T12:39:51.530Z,0.30
2019-02-16T12:43:13.229Z,0.60
2019-02-16T12:46:29.085Z,0.40
2019-02-16T12:49:52.795Z,0.50
2019-02-16T12:53:20.403Z,0.63
2019-02-16T12:56:35.886Z,1.00
2019-02-16T12:59:49.701Z,1.23
2019-02-16T13:03:20.052Z,1.23
2019-02-16T13:06:45.611Z,1.00
2019-02-16T13:10:21.650Z,1.10
2019-02-16T13:13:35.393Z,2.03
2019-02-16T13:17:04.928Z,3.93
2019-02-16T13:20:40.864Z,7.00
2019-02-16T13:24:10.474Z,4.00
2019-02-16T13:27:37.312Z,1.47
2019-02-16T13:31:02.505Z,1.53
2019-02-16T13:34:15.878Z,1.50
2019-02-16T13:37:44.780Z,1.40
2019-02-16T13:40:57.509Z,1.93
2019-02-16T13:44:17.123Z,3.37
2019-02-16T13:47:27.464Z,4.90
2019-02-16T13:50:42.129Z,2.00
2019-02-16T13:53:58.657Z,1.30
2019-02-16T13:57:12.455Z,1.30
2019-02-16T14:00:24.750Z,0.90
2019-02-16T14:03:55.366Z,1.50
2019-02-16T14:07:29.612Z,0.97
2019-02-16T14:11:04.935Z,1.30
2019-02-16T14:14:30.302Z,2.00
2019-02-16T14:17:43.278Z,1.73
2019-02-16T14:20:50.773Z,4.07
2019-02-16T14:23:58.433Z,2.93
2019-02-16T14:27:06.499Z,3.37
2019-02-16T14:30:14.282Z,2.90
2019-02-16T14:33:21.479Z,1.13
2019-02-16T14:36:29.357Z,1.10
2019-02-16T14:39:38.640Z,1.07
2019-02-16T14:42:46.726Z,0.90
2019-02-16T14:45:54.472Z,0.83
2019-02-16T14:49:01.977Z,1.07
2019-02-16T14:52:09.366Z,0.90
2019-02-16T14:55:16.822Z,0.97
2019-02-16T14:58:24.226Z,0.90
2019-02-16T15:01:31.724Z,1.30
2019-02-16T15:04:40.507Z,1.10
2019-02-16T15:07:48.175Z,1.60
2019-02-16T15:10:55.983Z,1.43
2019-02-16T15:14:03.556Z,1.80
2019-02-16T15:17:11.059Z,1.30
2019-02-16T15:20:18.550Z,1.17
2019-02-16T15:23:26.157Z,1.60
2019-02-16T15:26:33.737Z,2.53
2019-02-16T15:29:41.444Z,3.13
2019-02-16T15:32:49.491Z,3.87
2019-02-16T15:35:57.063Z,2.90
2019-02-16T15:39:08.107Z,3.80
2019-02-16T15:42:17.148Z,3.13
2019-02-16T15:45:26.027Z,1.90
2019-02-16T15:48:34.015Z,1.53
2019-02-16T15:51:42.839Z,2.27
2019-02-16T15:54:50.851Z,3.50
2019-02-16T15:57:58.296Z,2.60
2019-02-16T16:01:05.918Z,1.77
2019-02-16T16:04:13.220Z,1.70
2019-02-16T16:07:20.503Z,2.93
2019-02-16T16:10:31.754Z,3.50
2019-02-16T16:13:58.909Z,2.30
2019-02-16T16:17:41.714Z,4.50
2019-02-16T16:20:58.341Z,5.30
2019-02-16T16:24:34.867Z,8.47
2019-02-16T16:28:05.080Z,3.47
2019-02-16T16:31:31.329Z,3.07
2019-02-16T16:35:01.352Z,2.93
2019-02-16T16:38:24.639Z,3.40
2019-02-16T16:41:57.417Z,9.00
2019-02-16T16:45:26.346Z,7.40
2019-02-16T16:48:53.792Z,6.67
2019-02-16T16:52:21.211Z,8.37
2019-02-16T16:55:55.259Z,10.57
2019-02-16T16:59:22.737Z,22.70
2019-02-16T17:02:50.134Z,28.27
2019-02-16T17:06:20.307Z,28.30
2019-02-16T17:10:02.301Z,21.47
2019-02-16T17:13:17.896Z,13.80
2019-02-16T17:16:40.119Z,12.67
2019-02-16T17:20:16.726Z,12.60
2019-02-16T17:23:34.590Z,12.50
2019-02-16T17:26:50.915Z,12.87
2019-02-16T17:30:10.716Z,10.53
2019-02-16T17:33:30.356Z,7.20
2019-02-16T17:37:03.467Z,7.27
2019-02-16T17:40:32.736Z,8.53
2019-02-16T17:43:58.666Z,12.50
2019-02-16T17:47:35.033Z,13.90
2019-02-16T17:51:01.052Z,14.43
2019-02-16T17:54:20.944Z,11.83
2019-02-16T17:57:36.157Z,16.90
2019-02-16T18:01:01.566Z,15.43
2019-02-16T18:04:26.974Z,15.50
2019-02-16T18:07:52.947Z,12.57
2019-02-16T18:11:10.994Z,10.50
2019-02-16T18:14:25.901Z,7.63
2019-02-16T18:17:42.580Z,6.83
2019-02-16T18:21:08.351Z,4.47
2019-02-16T18:24:31.966Z,4.53
2019-02-16T18:27:48.103Z,5.07
2019-02-16T18:31:23.298Z,4.43
2019-02-16T18:34:48.008Z,3.70
2019-02-16T18:38:02.804Z,4.17
2019-02-16T18:41:34.364Z,3.43
2019-02-16T18:45:01.111Z,4.00
2019-02-16T18:48:28.153Z,3.30
2019-02-16T18:51:48.084Z,4.20
2019-02-16T18:55:15.225Z,6.60
2019-02-16T18:58:45.027Z,5.47
2019-02-16T19:01:59.215Z,4.10
2019-02-16T19:05:19.853Z,3.90
2019-02-16T19:08:39.926Z,3.77
2019-02-16T19:11:55.285Z,3.23
2019-02-16T19:15:25.505Z,3.40
2019-02-16T19:18:58.705Z,3.87
2019-02-16T19:22:15.267Z,5.13
2019-02-16T19:25:33.515Z,4.40
2019-02-16T19:29:18.896Z,4.47
2019-02-16T19:32:58.495Z,3.90
2019-02-16T19:36:19.736Z,3.23
2019-02-16T19:39:34.749Z,3.30
2019-02-16T19:42:49.549Z,3.03
2019-02-16T19:46:06.682Z,3.90
2019-02-16T19:49:30.865Z,3.60
2019-02-16T19:53:06.727Z,2.77
2019-02-16T19:56:34.394Z,2.77
2019-02-16T19:59:54.446Z,3.77
2019-02-16T20:03:18.799Z,3.20
2019-02-16T20:06:42.255Z,4.00
2019-02-16T20:09:56.245Z,3.37
2019-02-16T20:13:29.125Z,2.90
2019-02-16T20:17:08.668Z,4.63
2019-02-16T20:20:36.555Z,3.53
2019-02-16T20:24:06.692Z,2.30
2019-02-16T20:27:37.308Z,2.60
2019-02-16T20:31:01.204Z,2.17
2019-02-16T20:34:31.309Z,1.93
2019-02-16T20:37:51.883Z,2.23
2019-02-16T20:41:09.566Z,2.70
2019-02-16T20:44:39.343Z,2.37
2019-02-16T20:47:54.685Z,2.33
2019-02-16T20:51:20.519Z,2.43
2019-02-16T20:54:53.096Z,2.27
2019-02-16T20:58:16.920Z,2.17
2019-02-16T21:01:43.984Z,1.97
2019-02-16T21:05:20.733Z,1.67
2019-02-16T21:08:37.103Z,1.30
2019-02-16T21:11:51.325Z,1.80
2019-02-16T21:15:17.148Z,1.40
2019-02-16T21:18:36.762Z,1.60
2019-02-16T21:22:00.424Z,2.70
2019-02-16T21:25:14.118Z,2.40
2019-02-16T21:28:41.562Z,2.87
2019-02-16T21:32:06.399Z,2.47
2019-02-16T21:35:33.222Z,1.90
2019-02-16T21:39:03.103Z,1.70
2019-02-16T21:42:25.638Z,1.90
2019-02-16T21:45:40.583Z,1.63
2019-02-16T21:49:06.231Z,2.43
2019-02-16T21:52:21.673Z,2.20
2019-02-16T21:55:47.361Z,1.77
2019-02-16T21:59:19.500Z,1.67
2019-02-16T22:02:47.140Z,1.40
2019-02-16T22:06:21.492Z,1.33
2019-02-16T22:09:55.586Z,1.60
2019-02-16T22:13:05.704Z,0.97
2019-02-16T22:16:13.814Z,1.67
2019-02-16T22:19:21.479Z,0.90
2019-02-16T22:22:29.738Z,1.10
2019-02-16T22:25:37.572Z,1.20
2019-02-16T22:28:45.295Z,1.47
2019-02-16T22:31:52.719Z,1.10
2019-02-16T22:35:00.317Z,1.00
2019-02-16T22:38:07.868Z,1.17
2019-02-16T22:41:15.388Z,1.03
2019-02-16T22:44:23.266Z,0.90
2019-02-16T22:47:30.689Z,1.30
2019-02-16T22:50:39.765Z,1.00
2019-02-16T22:53:48.466Z,0.80
2019-02-16T22:56:56.184Z,1.10
2019-02-16T23:00:09.257Z,1.27
2019-02-16T23:03:16.856Z,1.30
2019-02-16T23:06:24.747Z,1.57
2019-02-16T23:09:31.956Z,1.10
2019-02-16T23:12:39.742Z,1.20
2019-02-16T23:15:47.502Z,1.20
2019-02-16T23:18:54.680Z,1.10
2019-02-16T23:22:02.147Z,1.07
2019-02-16T23:25:09.614Z,1.00
2019-02-16T23:28:16.804Z,1.03
2019-02-16T23:31:24.217Z,1.10
2019-02-16T23:34:31.704Z,1.30
2019-02-16T23:37:38.874Z,1.03
2019-02-16T23:40:46.234Z,1.27
2019-02-16T23:43:53.786Z,1.27
2019-02-16T23:47:01.284Z,1.30
2019-02-16T23:50:08.983Z,1.33
2019-02-16T23:53:16.254Z,1.53
2019-02-16T23:56:23.455Z,1.70
2019-02-16T23:59:31.885Z,1.13
